Felton, Delaware
Current Conditions -  °F | °C
As of 9:58 PM on Friday 21 Nov 2014 (Local Time) from KDOV Reporting Station
Clear Clear  
Wind Chill: 25°   Ceiling: Unl
Heat Index: 25°   Visibility: 10mi
Dew Point: 12°   Wind: 2mph
Humidity: 58%   Direction: 250°WSW
Pressure: 30.53"   Gusts: NA
Location:  39.01°N, 75.58°W
Report Text: KDOV 220258Z AUTO 25002KT 10SM CLR M04/M11 A3053 RMK AO2 SLP342 T10391111 51007
Loading
Personal Weather Stations






























Interactive Weather Map New forecast layout! Learn more

10-Day Weather Forecast

Advertisements
Track Severe Weather on mobile